createdAt,value
2023-03-26T00:00:43.084Z,100904.41
2023-03-26T00:01:46.909Z,100907.38
2023-03-26T00:02:50.640Z,100911.41
2023-03-26T00:03:55.039Z,100891.72
2023-03-26T00:04:58.974Z,100908.88
2023-03-26T00:06:08.885Z,100909.69
2023-03-26T00:07:12.814Z,100919.13
2023-03-26T00:08:17.162Z,100921.00
2023-03-26T00:09:20.957Z,100920.28
2023-03-26T00:10:24.622Z,100926.25
2023-03-26T00:11:30.052Z,100926.00
2023-03-26T00:12:33.750Z,100922.91
2023-03-26T00:13:37.566Z,100926.31
2023-03-26T00:14:41.379Z,100928.94
2023-03-26T00:15:45.070Z,100928.66
2023-03-26T00:16:48.689Z,100927.06
2023-03-26T00:17:52.423Z,100931.66
2023-03-26T00:18:56.208Z,100913.75
2023-03-26T00:19:59.968Z,100939.81
2023-03-26T00:21:05.583Z,100934.41
2023-03-26T00:22:10.968Z,100938.91
2023-03-26T00:23:14.684Z,100942.34
2023-03-26T00:24:18.356Z,100936.84
2023-03-26T00:25:22.035Z,100939.47
2023-03-26T00:26:25.757Z,100934.19
2023-03-26T00:27:29.335Z,100946.25
2023-03-26T00:28:32.918Z,100941.06
2023-03-26T00:29:36.719Z,100943.03
2023-03-26T00:30:40.405Z,100950.06
2023-03-26T00:31:44.099Z,100951.78
2023-03-26T00:32:53.966Z,100919.00
2023-03-26T00:33:57.809Z,100943.03
2023-03-26T00:35:01.504Z,100958.66
2023-03-26T00:36:07.463Z,100953.63
2023-03-26T00:37:12.801Z,100964.09
2023-03-26T00:38:16.605Z,100965.00
2023-03-26T00:39:20.288Z,100970.28
2023-03-26T00:40:23.974Z,100971.31
2023-03-26T00:41:27.692Z,100972.13
2023-03-26T00:42:31.579Z,100935.22
2023-03-26T00:43:36.715Z,100966.44
2023-03-26T00:44:40.373Z,100972.38
2023-03-26T00:45:44.165Z,100969.06
2023-03-26T00:46:48.280Z,100966.06
2023-03-26T00:47:52.075Z,100969.53
2023-03-26T00:48:55.736Z,100974.81
2023-03-26T00:49:59.396Z,100967.75
2023-03-26T00:51:03.056Z,100982.69
2023-03-26T00:52:07.391Z,100986.53
2023-03-26T00:53:13.011Z,100993.53
2023-03-26T00:54:16.678Z,100992.59
2023-03-26T00:55:20.544Z,100998.56
2023-03-26T00:56:24.418Z,100999.72
2023-03-26T00:57:34.991Z,100998.34
2023-03-26T00:58:39.357Z,100977.66
2023-03-26T00:59:43.123Z,101003.06
2023-03-26T01:00:50.730Z,100999.50
2023-03-26T01:01:54.410Z,101004.88
2023-03-26T01:02:58.233Z,101000.88
2023-03-26T01:04:24.944Z,100988.28
2023-03-26T01:05:45.006Z,100995.28
2023-03-26T01:06:48.700Z,101001.56
2023-03-26T01:07:52.676Z,101005.13
2023-03-26T01:08:58.474Z,101001.50
2023-03-26T01:10:02.347Z,101004.97
2023-03-26T01:11:09.727Z,101009.88
2023-03-26T01:12:16.441Z,101015.03
2023-03-26T01:13:21.965Z,100998.38
2023-03-26T01:14:27.289Z,100992.19
2023-03-26T01:15:31.473Z,101004.13
2023-03-26T01:16:38.089Z,100964.56
2023-03-26T01:17:41.872Z,100998.81
2023-03-26T01:18:45.601Z,101008.97
2023-03-26T01:19:54.246Z,101003.31
2023-03-26T01:20:58.048Z,101006.91
2023-03-26T01:22:01.935Z,101000.91
2023-03-26T01:23:08.206Z,101004.66
2023-03-26T01:24:13.590Z,101012.59
2023-03-26T01:25:17.613Z,101027.78
2023-03-26T01:26:31.432Z,100990.31
2023-03-26T01:27:39.369Z,101014.56
2023-03-26T01:28:43.578Z,101015.16
2023-03-26T01:29:53.971Z,101008.50
2023-03-26T01:31:07.399Z,101006.19
2023-03-26T01:32:31.127Z,101020.56
2023-03-26T01:33:41.876Z,101023.94
2023-03-26T01:34:56.864Z,101027.25
2023-03-26T01:36:04.983Z,101031.59
2023-03-26T01:37:18.791Z,101028.38
2023-03-26T01:38:30.044Z,101034.13
2023-03-26T01:39:42.843Z,101027.88
2023-03-26T01:40:50.228Z,101030.06
2023-03-26T01:41:58.135Z,101031.22
2023-03-26T01:43:09.884Z,101025.56
2023-03-26T01:44:21.357Z,100980.63
2023-03-26T01:45:29.157Z,101037.66
2023-03-26T01:46:35.024Z,101028.22
2023-03-26T01:47:40.736Z,101031.44
2023-03-26T01:48:46.257Z,101032.81
2023-03-26T01:49:50.088Z,101043.50
2023-03-26T01:50:53.844Z,101033.44
2023-03-26T01:51:58.641Z,101039.16
2023-03-26T01:53:02.635Z,101034.44
2023-03-26T01:54:09.467Z,101030.91
2023-03-26T01:55:15.178Z,101025.75
2023-03-26T01:56:24.442Z,101045.41
2023-03-26T01:57:37.336Z,101048.72
2023-03-26T01:58:52.318Z,101046.78
2023-03-26T02:00:16.763Z,101050.31
2023-03-26T02:01:27.542Z,101046.84
2023-03-26T02:02:37.552Z,101043.91
2023-03-26T02:03:47.672Z,101045.84
2023-03-26T02:04:56.415Z,101047.09
2023-03-26T02:06:10.438Z,101051.94
2023-03-26T02:07:21.441Z,101050.38
2023-03-26T02:08:29.566Z,101044.66
2023-03-26T02:09:40.131Z,101051.88
2023-03-26T02:10:47.685Z,101044.84
2023-03-26T02:11:52.196Z,101008.34
2023-03-26T02:12:56.798Z,101046.94
2023-03-26T02:14:01.368Z,101047.91
2023-03-26T02:15:05.842Z,101046.09
2023-03-26T02:16:12.803Z,101050.56
2023-03-26T02:17:16.591Z,101047.91
2023-03-26T02:18:20.428Z,101046.94
2023-03-26T02:19:24.290Z,101035.94
2023-03-26T02:20:28.098Z,101045.56
2023-03-26T02:21:31.757Z,101045.56
2023-03-26T02:22:35.470Z,101050.31
2023-03-26T02:23:39.395Z,101047.00
2023-03-26T02:24:43.288Z,101046.66
2023-03-26T02:25:48.680Z,101041.03
2023-03-26T02:26:52.308Z,101047.88
2023-03-26T02:27:56.195Z,101048.25
2023-03-26T02:29:00.371Z,101048.13
2023-03-26T02:30:04.272Z,101036.81
2023-03-26T02:31:08.736Z,101049.44
2023-03-26T02:32:12.837Z,101046.94
2023-03-26T02:33:16.532Z,101024.16
2023-03-26T02:34:20.180Z,101045.66
2023-03-26T02:35:24.115Z,101023.53
2023-03-26T02:36:28.502Z,101054.69
2023-03-26T02:37:32.810Z,101052.81
2023-03-26T02:38:36.502Z,101056.25
2023-03-26T02:39:40.228Z,101055.25
2023-03-26T02:40:43.857Z,101055.91
2023-03-26T02:41:49.209Z,101057.97
2023-03-26T02:42:52.934Z,101051.19
2023-03-26T02:43:56.642Z,101053.25
2023-03-26T02:45:00.297Z,101048.88
2023-03-26T02:46:04.283Z,101055.22
2023-03-26T02:47:07.962Z,101055.41
2023-03-26T02:48:11.564Z,101047.91
2023-03-26T02:49:15.304Z,101058.63
2023-03-26T02:50:19.052Z,101053.03
2023-03-26T02:51:22.756Z,101053.38
2023-03-26T02:52:26.521Z,101055.44
2023-03-26T02:53:30.554Z,101052.16
2023-03-26T02:54:34.653Z,101051.19
2023-03-26T02:55:38.316Z,101045.91
2023-03-26T02:56:42.078Z,101045.34
2023-03-26T02:57:47.414Z,101045.47
2023-03-26T02:58:51.120Z,101018.31
2023-03-26T02:59:54.811Z,101041.34
2023-03-26T03:00:58.467Z,101041.81
2023-03-26T03:02:02.232Z,101042.13
2023-03-26T03:03:06.034Z,101048.91
2023-03-26T03:04:09.734Z,101026.97
2023-03-26T03:05:13.425Z,101041.16
2023-03-26T03:06:18.116Z,101039.47
2023-03-26T03:07:21.767Z,101037.88
2023-03-26T03:08:27.749Z,101038.22
2023-03-26T03:09:31.569Z,101041.63
2023-03-26T03:10:35.221Z,101042.31
2023-03-26T03:11:39.874Z,101043.81
2023-03-26T03:12:43.904Z,101037.81
2023-03-26T03:13:49.365Z,101022.56
2023-03-26T03:14:52.987Z,101016.81
2023-03-26T03:15:57.317Z,101028.19
2023-03-26T03:17:01.267Z,101033.44
2023-03-26T03:18:05.162Z,101028.63
2023-03-26T03:19:08.948Z,101008.47
2023-03-26T03:20:13.072Z,101029.72
2023-03-26T03:21:16.765Z,101027.97
2023-03-26T03:22:20.677Z,101032.06
2023-03-26T03:23:24.531Z,101028.63
2023-03-26T03:24:28.215Z,101033.31
2023-03-26T03:25:31.838Z,101031.78
2023-03-26T03:26:35.514Z,101029.94
2023-03-26T03:27:39.196Z,101035.56
2023-03-26T03:28:43.226Z,101028.31
2023-03-26T03:29:48.610Z,101021.69
2023-03-26T03:30:52.486Z,101026.22
2023-03-26T03:31:56.848Z,101005.16
2023-03-26T03:33:00.470Z,101026.00
2023-03-26T03:34:04.310Z,101014.66
2023-03-26T03:35:09.000Z,101025.53
2023-03-26T03:36:19.875Z,101025.91
2023-03-26T03:37:24.964Z,101018.56
2023-03-26T03:38:28.637Z,101028.72
2023-03-26T03:39:32.341Z,101031.25
2023-03-26T03:40:35.934Z,101027.69
2023-03-26T03:41:39.554Z,101024.94
2023-03-26T03:42:43.164Z,101016.22
2023-03-26T03:43:47.093Z,101025.69
2023-03-26T03:44:52.455Z,101021.75
2023-03-26T03:45:56.400Z,101019.81
2023-03-26T03:47:00.284Z,101025.44
2023-03-26T03:48:04.123Z,101020.16
2023-03-26T03:49:08.214Z,101005.84
2023-03-26T03:50:12.180Z,100986.91
2023-03-26T03:51:15.816Z,101010.06
2023-03-26T03:52:19.544Z,101014.78
2023-03-26T03:53:23.778Z,101000.78
2023-03-26T03:54:27.411Z,100999.84
2023-03-26T03:55:31.093Z,100991.28
2023-03-26T03:56:34.802Z,100996.88
2023-03-26T03:57:38.769Z,100990.91
2023-03-26T03:58:42.540Z,100985.78
2023-03-26T03:59:47.460Z,100993.72
2023-03-26T04:00:53.893Z,100994.19
2023-03-26T04:01:57.551Z,100983.72
2023-03-26T04:03:01.239Z,100984.03
2023-03-26T04:04:05.245Z,100983.22
2023-03-26T04:05:09.581Z,100984.56
2023-03-26T04:06:13.744Z,100986.97
2023-03-26T04:07:17.431Z,100973.88
2023-03-26T04:08:21.185Z,100985.47
2023-03-26T04:09:24.821Z,100990.72
2023-03-26T04:10:28.561Z,100979.94
2023-03-26T04:11:32.291Z,100971.28
2023-03-26T04:12:36.045Z,100971.56
2023-03-26T04:13:39.912Z,100927.22
2023-03-26T04:14:43.617Z,100973.16
2023-03-26T04:15:47.347Z,100968.91
2023-03-26T04:16:52.691Z,100963.72
2023-03-26T04:17:56.439Z,100962.63
2023-03-26T04:19:00.130Z,100962.91
2023-03-26T04:20:03.905Z,100950.69
2023-03-26T04:21:07.900Z,100942.72
2023-03-26T04:22:11.593Z,100960.16
2023-03-26T04:23:15.657Z,100961.53
2023-03-26T04:24:19.368Z,100953.75
2023-03-26T04:25:23.041Z,100953.44
2023-03-26T04:26:26.800Z,100955.28
2023-03-26T04:27:33.189Z,100951.03
2023-03-26T04:28:43.600Z,100944.78
2023-03-26T04:29:49.554Z,100938.75
2023-03-26T04:30:53.576Z,100946.63
2023-03-26T04:31:59.240Z,100944.53
2023-03-26T04:33:04.272Z,100941.09
2023-03-26T04:34:10.110Z,100936.59
2023-03-26T04:35:15.503Z,100942.44
2023-03-26T04:36:19.672Z,100933.22
2023-03-26T04:37:28.723Z,100928.91
2023-03-26T04:38:36.090Z,100933.78
2023-03-26T04:39:41.131Z,100933.91
2023-03-26T04:40:47.087Z,100935.91
2023-03-26T04:41:52.535Z,100939.34
2023-03-26T04:43:01.052Z,100932.94
2023-03-26T04:44:13.052Z,100924.47
2023-03-26T04:45:21.203Z,100926.66
2023-03-26T04:46:30.132Z,100912.69
2023-03-26T04:47:37.323Z,100929.00
2023-03-26T04:48:45.428Z,100911.88
2023-03-26T04:49:53.282Z,100910.41
2023-03-26T04:51:01.082Z,100928.97
2023-03-26T04:52:06.576Z,100923.88
2023-03-26T04:53:17.856Z,100929.28
2023-03-26T04:54:26.770Z,100911.28
2023-03-26T04:55:37.698Z,100887.50
2023-03-26T04:56:50.568Z,100901.13
2023-03-26T04:57:59.685Z,100881.69
2023-03-26T04:59:08.982Z,100909.00
2023-03-26T05:00:17.449Z,100910.31
2023-03-26T05:01:23.057Z,100907.81
2023-03-26T05:02:36.690Z,100899.59
2023-03-26T05:03:46.922Z,100896.94
2023-03-26T05:04:52.316Z,100890.69
2023-03-26T05:06:00.802Z,100894.13
2023-03-26T05:07:07.177Z,100848.56
2023-03-26T05:08:13.368Z,100893.03
2023-03-26T05:09:20.036Z,100875.88
2023-03-26T05:10:25.876Z,100879.69
2023-03-26T05:11:34.323Z,100872.75
2023-03-26T05:12:39.698Z,100883.56
2023-03-26T05:13:45.114Z,100882.94
2023-03-26T05:14:51.813Z,100875.59
2023-03-26T05:15:57.372Z,100877.13
2023-03-26T05:17:04.549Z,100868.88
2023-03-26T05:18:11.442Z,100872.41
2023-03-26T05:19:18.597Z,100863.47
2023-03-26T05:20:26.309Z,100866.13
2023-03-26T05:21:32.060Z,100867.13
2023-03-26T05:22:38.231Z,100861.50
2023-03-26T05:23:43.675Z,100862.41
2023-03-26T05:24:49.083Z,100843.44
2023-03-26T05:25:54.481Z,100856.22
2023-03-26T05:27:08.954Z,100842.59
2023-03-26T05:28:14.419Z,100855.78
2023-03-26T05:29:20.252Z,100845.56
2023-03-26T05:30:25.853Z,100858.41
2023-03-26T05:31:35.278Z,100843.22
2023-03-26T05:32:40.760Z,100837.81
2023-03-26T05:33:46.559Z,100843.81
2023-03-26T05:34:53.630Z,100840.53
2023-03-26T05:36:03.565Z,100835.91
2023-03-26T05:37:09.043Z,100830.41
2023-03-26T05:38:14.668Z,100841.78
2023-03-26T05:39:25.660Z,100823.47
2023-03-26T05:40:31.157Z,100815.41
2023-03-26T05:41:36.844Z,100825.63
2023-03-26T05:42:42.891Z,100830.94
2023-03-26T05:43:50.027Z,100803.13
2023-03-26T05:44:56.786Z,100817.59
2023-03-26T05:46:05.611Z,100814.56
2023-03-26T05:47:12.251Z,100803.47
2023-03-26T05:48:17.716Z,100808.63
2023-03-26T05:49:25.967Z,100816.63
2023-03-26T05:50:34.647Z,100801.31
2023-03-26T05:51:39.981Z,100797.81
2023-03-26T05:52:45.395Z,100799.94
2023-03-26T05:53:50.882Z,100792.09
2023-03-26T05:54:56.344Z,100787.19
2023-03-26T05:56:03.061Z,100789.75
2023-03-26T05:57:11.884Z,100769.72
2023-03-26T05:58:17.596Z,100758.53
2023-03-26T05:59:22.983Z,100782.66
2023-03-26T06:00:28.652Z,100781.09
2023-03-26T06:01:35.554Z,100787.31
2023-03-26T06:02:42.291Z,100777.81
2023-03-26T06:03:48.563Z,100772.16
2023-03-26T06:04:55.401Z,100768.28
2023-03-26T06:06:02.639Z,100765.69
2023-03-26T06:07:08.132Z,100765.78
2023-03-26T06:08:13.568Z,100759.97
2023-03-26T06:09:19.012Z,100764.28
2023-03-26T06:10:24.416Z,100749.78
2023-03-26T06:11:30.146Z,100750.53
2023-03-26T06:12:35.301Z,100769.28
2023-03-26T06:13:41.714Z,100745.72
2023-03-26T06:14:48.174Z,100758.66
2023-03-26T06:15:56.943Z,100752.81
2023-03-26T06:17:02.361Z,100748.81
2023-03-26T06:18:08.128Z,100735.75
2023-03-26T06:19:15.294Z,100735.25
2023-03-26T06:20:20.786Z,100748.00
2023-03-26T06:21:28.211Z,100754.09
2023-03-26T06:22:33.664Z,100745.13
2023-03-26T06:23:42.530Z,100698.22
2023-03-26T06:24:49.310Z,100743.88
2023-03-26T06:25:54.797Z,100717.59
2023-03-26T06:27:00.263Z,100730.44
2023-03-26T06:28:07.639Z,100732.06
2023-03-26T06:29:13.099Z,100739.50
2023-03-26T06:30:18.838Z,100728.88
2023-03-26T06:31:31.100Z,100727.75
2023-03-26T06:32:36.659Z,100722.56
2023-03-26T06:33:42.227Z,100732.16
2023-03-26T06:34:47.678Z,100737.09
2023-03-26T06:35:53.081Z,100729.25
2023-03-26T06:37:00.134Z,100722.53
2023-03-26T06:38:09.207Z,100719.75
2023-03-26T06:39:14.662Z,100711.88
2023-03-26T06:40:20.558Z,100718.13
2023-03-26T06:41:27.385Z,100717.72
2023-03-26T06:43:08.175Z,100716.41
2023-03-26T06:44:01.836Z,100705.78
2023-03-26T06:45:08.393Z,100712.13
2023-03-26T06:46:13.953Z,100699.97
2023-03-26T06:47:19.410Z,100701.94
2023-03-26T06:48:28.163Z,100705.69
2023-03-26T06:49:33.788Z,100705.44
2023-03-26T06:50:39.230Z,100712.00
2023-03-26T06:51:48.135Z,100695.19
2023-03-26T06:52:58.119Z,100687.41
2023-03-26T06:54:03.596Z,100686.75
2023-03-26T06:55:09.763Z,100692.31
2023-03-26T06:56:15.200Z,100686.00
2023-03-26T06:57:20.715Z,100682.69
2023-03-26T06:58:26.097Z,100668.09
2023-03-26T06:59:33.194Z,100676.38
2023-03-26T07:00:38.735Z,100683.31
2023-03-26T07:01:45.329Z,100681.41
2023-03-26T07:02:52.345Z,100658.47
2023-03-26T07:04:00.060Z,100672.06
2023-03-26T07:05:05.837Z,100669.72
2023-03-26T07:06:11.867Z,100659.84
2023-03-26T07:07:17.341Z,100661.19
2023-03-26T07:08:26.413Z,100643.28
2023-03-26T07:09:32.037Z,100662.16
2023-03-26T07:10:37.679Z,100656.00
2023-03-26T07:11:43.129Z,100657.44
2023-03-26T07:12:48.636Z,100654.34
2023-03-26T07:13:54.820Z,100655.06
2023-03-26T07:15:00.785Z,100642.47
2023-03-26T07:16:06.497Z,100643.38
2023-03-26T07:17:12.172Z,100646.78
2023-03-26T07:18:17.611Z,100643.28
2023-03-26T07:19:23.170Z,100640.84
2023-03-26T07:20:28.971Z,100639.34
2023-03-26T07:21:35.188Z,100637.53
2023-03-26T07:22:41.251Z,100640.34
2023-03-26T07:23:56.537Z,100630.44
2023-03-26T07:25:02.638Z,100630.63
2023-03-26T07:26:23.209Z,100627.06
2023-03-26T07:27:40.999Z,100625.19
2023-03-26T07:29:03.816Z,100618.94
2023-03-26T07:30:17.534Z,100613.50
2023-03-26T07:31:31.280Z,100595.94
2023-03-26T07:32:43.702Z,100617.97
2023-03-26T07:33:56.676Z,100618.72
2023-03-26T07:35:07.908Z,100613.53
2023-03-26T07:36:27.218Z,100613.50
2023-03-26T07:37:44.597Z,100609.53
2023-03-26T07:39:06.819Z,100605.75
2023-03-26T07:40:22.091Z,100613.47
2023-03-26T07:41:34.684Z,100604.28
2023-03-26T07:42:55.652Z,100606.88
2023-03-26T07:44:35.714Z,100605.03
2023-03-26T07:45:43.331Z,100551.81
2023-03-26T07:46:50.254Z,100534.50
2023-03-26T07:47:56.459Z,100597.81
2023-03-26T07:49:03.067Z,100589.19
2023-03-26T07:50:10.046Z,100596.34
2023-03-26T07:51:19.040Z,100598.84
2023-03-26T07:52:25.297Z,100541.84
2023-03-26T07:53:31.172Z,100596.00
2023-03-26T07:54:38.979Z,100590.13
2023-03-26T07:55:52.614Z,100580.75
2023-03-26T07:57:04.360Z,100595.53
2023-03-26T07:58:24.509Z,100587.69
2023-03-26T07:59:39.666Z,100579.03
2023-03-26T08:00:54.090Z,100575.72
2023-03-26T08:02:21.407Z,100571.13
2023-03-26T08:04:00.030Z,100578.22
2023-03-26T08:05:30.043Z,100573.81
2023-03-26T08:06:38.639Z,100567.88
2023-03-26T08:07:57.677Z,100571.53
2023-03-26T08:09:10.252Z,100555.25
2023-03-26T08:10:23.786Z,100569.09
2023-03-26T08:11:42.734Z,100564.09
2023-03-26T08:12:57.479Z,100567.25
2023-03-26T08:14:10.825Z,100558.19
2023-03-26T08:15:24.769Z,100550.66
2023-03-26T08:16:38.874Z,100566.97
2023-03-26T08:17:50.537Z,100558.56
2023-03-26T08:19:04.614Z,100553.31
2023-03-26T08:20:20.666Z,100563.75
2023-03-26T08:21:32.835Z,100554.16
2023-03-26T08:22:43.186Z,100555.03
2023-03-26T08:24:00.746Z,100551.91
2023-03-26T08:25:28.114Z,100512.75
2023-03-26T08:26:39.270Z,100550.25
2023-03-26T08:27:49.746Z,100483.66
2023-03-26T08:29:09.480Z,100542.75
2023-03-26T08:30:19.670Z,100520.75
2023-03-26T08:31:33.660Z,100540.78
2023-03-26T08:32:40.035Z,100539.16
2023-03-26T08:33:45.524Z,100547.09
2023-03-26T08:34:51.857Z,100543.84
2023-03-26T08:35:57.307Z,100544.28
2023-03-26T08:37:02.834Z,100500.44
2023-03-26T08:38:08.947Z,100539.91
2023-03-26T08:39:14.644Z,100541.06
2023-03-26T08:40:44.395Z,100538.03
2023-03-26T08:42:37.218Z,100523.72
2023-03-26T08:44:06.215Z,100535.94
2023-03-26T08:45:43.411Z,100531.09
2023-03-26T08:47:20.628Z,100529.09
2023-03-26T08:48:51.789Z,100531.09
2023-03-26T08:50:40.154Z,100498.53
2023-03-26T08:52:11.488Z,100531.63
2023-03-26T08:53:58.494Z,100525.66
2023-03-26T08:55:33.210Z,100520.47
2023-03-26T08:56:51.237Z,100512.47
2023-03-26T08:58:37.309Z,100521.66
2023-03-26T09:00:04.766Z,100526.06
2023-03-26T09:01:44.984Z,100524.75
2023-03-26T09:03:36.606Z,100524.38
2023-03-26T09:05:13.908Z,100523.94
2023-03-26T09:06:58.916Z,100484.56
2023-03-26T09:08:30.088Z,100516.88
2023-03-26T09:10:16.966Z,100514.50
2023-03-26T09:11:59.950Z,100512.19
2023-03-26T09:13:45.792Z,100501.06
2023-03-26T09:15:08.855Z,100514.50
2023-03-26T09:16:41.464Z,100509.75
2023-03-26T09:18:11.063Z,100511.19
2023-03-26T09:19:46.382Z,100510.84
2023-03-26T09:21:16.194Z,100506.91
2023-03-26T09:23:02.853Z,100512.56
2023-03-26T09:24:49.074Z,100503.84
2023-03-26T09:26:14.989Z,100507.66
2023-03-26T09:27:37.935Z,100466.66
2023-03-26T09:29:26.733Z,100506.97
2023-03-26T09:31:08.349Z,100506.94
2023-03-26T09:32:58.973Z,100508.72
2023-03-26T09:34:24.627Z,100504.69
2023-03-26T09:36:04.489Z,100460.94
2023-03-26T09:37:27.252Z,100516.63
2023-03-26T09:38:44.803Z,100509.19
2023-03-26T09:40:03.113Z,100504.50
2023-03-26T09:41:16.066Z,100499.31
2023-03-26T09:42:32.526Z,100510.22
2023-03-26T09:43:57.517Z,100505.72
2023-03-26T09:45:43.943Z,100506.56
2023-03-26T09:47:06.750Z,100506.31
2023-03-26T09:48:22.647Z,100512.63
2023-03-26T09:49:43.728Z,100450.56
2023-03-26T09:51:03.090Z,100501.56
2023-03-26T09:52:36.475Z,100492.16
2023-03-26T09:54:06.138Z,100494.22
2023-03-26T09:55:32.157Z,100502.19
2023-03-26T09:56:50.045Z,100497.28
2023-03-26T09:58:16.817Z,100498.84
2023-03-26T09:59:56.955Z,100509.31
2023-03-26T10:01:07.896Z,100507.44
2023-03-26T10:02:45.400Z,100503.44
2023-03-26T10:04:02.934Z,100505.56
2023-03-26T10:05:22.219Z,100506.31
2023-03-26T10:06:43.351Z,100474.38
2023-03-26T10:08:05.033Z,100515.84
2023-03-26T10:09:43.509Z,100509.75
2023-03-26T10:10:55.999Z,100513.34
2023-03-26T10:12:24.496Z,100513.09
2023-03-26T10:13:42.387Z,100511.16
2023-03-26T10:14:57.181Z,100514.25
2023-03-26T10:16:22.480Z,100494.59
2023-03-26T10:17:50.315Z,100516.59
2023-03-26T10:19:22.314Z,100516.94
2023-03-26T10:20:56.184Z,100508.34
2023-03-26T10:22:10.650Z,100492.13
2023-03-26T10:23:33.381Z,100522.88
2023-03-26T10:25:01.112Z,100515.66
2023-03-26T10:26:24.774Z,100528.84
2023-03-26T10:27:45.373Z,100530.50
2023-03-26T10:29:25.209Z,100527.28
2023-03-26T10:30:58.651Z,100525.69
2023-03-26T10:32:16.058Z,100533.25
2023-03-26T10:33:32.805Z,100525.13
2023-03-26T10:35:08.307Z,100528.53
2023-03-26T10:36:36.831Z,100514.66
2023-03-26T10:37:52.866Z,100464.06
2023-03-26T10:39:36.886Z,100517.97
2023-03-26T10:40:53.986Z,100517.22
2023-03-26T10:42:09.999Z,100522.16
2023-03-26T10:43:34.110Z,100517.19
2023-03-26T10:45:07.357Z,100525.16
2023-03-26T10:46:38.163Z,100520.75
2023-03-26T10:48:06.832Z,100530.84
2023-03-26T10:50:11.695Z,100529.50
2023-03-26T10:51:36.176Z,100537.34
2023-03-26T10:52:49.048Z,100534.56
2023-03-26T10:53:58.411Z,100537.34
2023-03-26T10:55:12.483Z,100532.41
2023-03-26T10:56:25.062Z,100538.44
2023-03-26T10:57:42.801Z,100539.16
2023-03-26T10:58:50.066Z,100531.97
2023-03-26T10:59:58.673Z,100541.31
2023-03-26T11:01:06.330Z,100533.63
2023-03-26T11:02:30.744Z,100527.84
2023-03-26T11:03:53.334Z,100541.88
2023-03-26T11:05:09.449Z,100529.94
2023-03-26T11:06:33.761Z,100544.47
2023-03-26T11:07:45.285Z,100512.59
2023-03-26T11:08:59.920Z,100483.97
2023-03-26T11:10:10.747Z,100543.31
2023-03-26T11:11:24.632Z,100538.13
2023-03-26T11:12:38.521Z,100536.13
2023-03-26T11:13:52.598Z,100542.88
2023-03-26T11:15:09.533Z,100542.59
2023-03-26T11:16:21.157Z,100534.38
2023-03-26T11:17:41.605Z,100537.31
2023-03-26T11:18:54.886Z,100534.06
2023-03-26T11:20:05.808Z,100532.31
2023-03-26T11:21:20.766Z,100544.63
2023-03-26T11:22:36.877Z,100499.97
2023-03-26T11:24:05.015Z,100540.91
2023-03-26T11:25:47.460Z,100545.53
2023-03-26T11:26:57.000Z,100549.63
2023-03-26T11:28:35.608Z,100546.81
2023-03-26T11:29:49.250Z,100547.19
2023-03-26T11:30:59.442Z,100551.69
2023-03-26T11:32:06.889Z,100556.50
2023-03-26T11:33:17.568Z,100515.75
2023-03-26T11:34:29.704Z,100550.56
2023-03-26T11:35:39.853Z,100550.81
2023-03-26T11:36:50.984Z,100497.53
2023-03-26T11:37:56.788Z,100545.63
2023-03-26T11:39:05.997Z,100544.91
2023-03-26T11:40:14.927Z,100549.50
2023-03-26T11:41:23.922Z,100549.94
2023-03-26T11:42:28.557Z,100493.63
2023-03-26T11:43:36.342Z,100544.25
2023-03-26T11:44:43.686Z,100538.44
2023-03-26T11:45:48.896Z,100549.59
2023-03-26T11:46:59.064Z,100550.81
2023-03-26T11:48:10.340Z,100553.22
2023-03-26T11:49:19.745Z,100559.84
2023-03-26T11:50:27.348Z,100553.00
2023-03-26T11:51:34.405Z,100490.81
2023-03-26T11:52:39.787Z,100552.69
2023-03-26T11:53:45.330Z,100558.56
2023-03-26T11:54:49.261Z,100559.47
2023-03-26T11:56:00.939Z,100556.59
2023-03-26T11:57:09.154Z,100560.81
2023-03-26T11:58:30.823Z,100566.44
2023-03-26T11:59:48.815Z,100567.78
2023-03-26T12:00:55.467Z,100565.69
2023-03-26T12:02:15.684Z,100563.16
2023-03-26T12:03:19.386Z,100562.31
2023-03-26T12:04:34.671Z,100542.97
2023-03-26T12:05:50.587Z,100570.84
2023-03-26T12:06:59.158Z,100574.56
2023-03-26T12:08:18.100Z,100578.44
2023-03-26T12:09:21.877Z,100574.25
2023-03-26T12:10:35.268Z,100586.22
2023-03-26T12:11:39.414Z,100578.88
2023-03-26T12:12:48.460Z,100582.09
2023-03-26T12:13:57.445Z,100581.94
2023-03-26T12:15:01.933Z,100521.03
2023-03-26T12:16:14.353Z,100585.16
2023-03-26T12:17:32.161Z,100583.81
2023-03-26T12:18:38.858Z,100586.81
2023-03-26T12:19:46.324Z,100590.94
2023-03-26T12:20:51.349Z,100590.56
2023-03-26T12:21:55.749Z,100593.66
2023-03-26T12:23:00.230Z,100595.78
2023-03-26T12:24:06.730Z,100593.09
2023-03-26T12:25:18.517Z,100594.97
2023-03-26T12:26:30.497Z,100585.88
2023-03-26T12:27:34.095Z,100586.47
2023-03-26T12:28:37.675Z,100596.00
2023-03-26T12:29:44.398Z,100582.28
2023-03-26T12:31:00.326Z,100596.88
2023-03-26T12:32:15.783Z,100596.97
2023-03-26T12:33:25.236Z,100590.59
2023-03-26T12:34:33.616Z,100598.84
2023-03-26T12:35:44.191Z,100598.47
2023-03-26T12:36:55.212Z,100600.09
2023-03-26T12:38:18.058Z,100604.00
2023-03-26T12:40:09.178Z,100606.03
2023-03-26T12:44:44.404Z,100605.16
2023-03-26T12:44:44.732Z,100604.63
2023-03-26T12:44:53.116Z,100607.38
2023-03-26T12:46:44.322Z,100601.00
2023-03-26T12:47:56.968Z,100604.47
2023-03-26T12:48:44.901Z,100595.66
2023-03-26T12:49:50.972Z,100601.34
2023-03-26T12:51:10.473Z,100609.38
2023-03-26T12:52:30.921Z,100607.41
2023-03-26T12:54:03.551Z,100604.16
2023-03-26T12:55:25.231Z,100612.84
2023-03-26T12:56:32.749Z,100619.06
2023-03-26T12:57:40.783Z,100564.03
2023-03-26T12:59:03.873Z,100619.97
2023-03-26T13:00:27.283Z,100615.06
2023-03-26T13:01:46.849Z,100616.13
2023-03-26T13:03:10.168Z,100579.34
2023-03-26T13:04:25.629Z,100619.53
2023-03-26T13:05:40.498Z,100587.88
2023-03-26T13:07:00.370Z,100609.56
2023-03-26T13:08:33.967Z,100625.59
2023-03-26T13:09:52.897Z,100635.59
2023-03-26T13:11:07.361Z,100635.75
2023-03-26T13:12:20.925Z,100639.38
2023-03-26T13:13:45.221Z,100632.06
2023-03-26T13:15:22.335Z,100639.22
2023-03-26T13:16:35.276Z,100643.16
2023-03-26T13:17:46.040Z,100625.91
2023-03-26T13:18:57.364Z,100646.91
2023-03-26T13:20:08.663Z,100633.44
2023-03-26T13:21:20.202Z,100609.34
2023-03-26T13:22:33.864Z,100586.28
2023-03-26T13:23:47.676Z,100645.75
2023-03-26T13:25:00.804Z,100646.53
2023-03-26T13:26:20.363Z,100653.84
2023-03-26T13:27:43.964Z,100626.72
2023-03-26T13:29:00.659Z,100657.22
2023-03-26T13:30:14.342Z,100647.78
2023-03-26T13:31:30.124Z,100662.50
2023-03-26T13:32:49.416Z,100652.59
2023-03-26T13:34:02.658Z,100666.13
2023-03-26T13:35:18.924Z,100639.38